Ana Sayfa
METAR-TAF:

METAR-TAF

Havaalanları :

Luang Prabang, Laos

Enlem: 19-53N, Boylam: 102-08E, yükseklik: 305 m

Güncel hava durumu gözlemi

Rapor saat 12:00 UTC de 1 saat ve 16 dakika önce yapıldı.
Rüzgar batıdan 4 kt
Sıcaklık 31°C
Nem 66%
Basınç 1003 hPa
Görüş mesafesi 10 km veya daha fazla
2000 ft yükseklikte parçalı bulutlu

METAR: VLLB 161200Z 27004KT 9999 SCT020 31/24 Q1003 NOSIG

Saat: 20:16 (13:16 UTC)

Tahmin

Rapor saat 11:00 UTC de 2 saat ve 16 dakika önce yapıldı.
Ayın 16'si saat 12 UTC'den ayın 17'si saat 12 UTC'ye kadar geçerli Tahmin
Rüzgar batı/güneybatıdan 4 kt
Görüş mesafesi: 7000 m
2000 ft yükseklikte parçalı bulutlu
6000 ft yükseklikte parçalı çok bulutlu

TAF: VLLB 161100Z 1612/1712 24004KT 7000 SCT020 BKN060

4.000'den fazla havaalanı için hava durumu gözlemleri ve tahminleri (METAR ve TAF raporları).

Kullanılabilir istasyonlar harita üzerinde sarı ve kırmızı noktalarla gösterilir.

İstasyonun adını görmek için fareyi noktanın üzerinde gezdirin.

Sonrasında hava gözlem ve tahminlerini görmek için tıklayın.

Haritayı değiştirmek için: yaklaştırmak için siyah artı işaretli yeşil düğmeye ve uzaklaştırmak için de eksi işaretli düğmeye hızla tıklayın; bitişik haritalar için yeşil okları kullanın.


METAR-TAF: